Time;durP1;ratioP1;P1;durP2;ratioP2;P2;SDS_P1;SDS_P2;PMS_P1;PMS_P2;Temp;Humidity;BMP_temperature;BMP_pressure;BME280_temperature;BME280_humidity;BME280_pressure;Samples;Min_cycle;Max_cycle;Signal;HPM_P1;HPM_P2
2022/08/28 00:00:24;;;;;;;1999.90;999.90;;;18.30;89.30;;;;;;5035193;28;20204;-70
2022/08/28 00:02:52;;;;;;;1999.90;999.90;;;18.30;88.20;;;;;;5035131;28;20272;-68
2022/08/28 00:05:21;;;;;;;1999.90;999.90;;;18.20;90.80;;;;;;5034843;28;20207;-69
2022/08/28 00:07:48;;;;;;;1999.90;999.90;;;18.20;90.30;;;;;;5035073;28;20215;-69
2022/08/28 00:10:19;;;;;;;1999.90;999.90;;;18.20;86.30;;;;;;5034707;28;20249;-69
2022/08/28 00:12:48;;;;;;;1999.90;999.90;;;18.20;90.00;;;;;;5034783;28;20183;-69
2022/08/28 00:15:19;;;;;;;1999.90;999.90;;;18.20;90.40;;;;;;5034906;28;20196;-69
2022/08/28 00:17:48;;;;;;;1999.90;999.90;;;18.10;92.60;;;;;;5034955;28;20184;-69
2022/08/28 00:20:17;;;;;;;1999.90;999.90;;;18.10;94.50;;;;;;5034785;28;20199;-68
2022/08/28 00:22:45;;;;;;;1999.90;999.90;;;18.10;95.40;;;;;;5034294;28;20620;-69
2022/08/28 00:25:13;;;;;;;1999.90;999.90;;;18.10;95.70;;;;;;5033791;28;20208;-70
2022/08/28 00:27:54;;;;;;;1999.90;999.90;;;18.10;97.30;;;;;;5034479;28;20205;-69
2022/08/28 00:30:24;;;;;;;1999.90;999.90;;;18.10;99.90;;;;;;5034413;28;20188;-69
2022/08/28 00:32:52;;;;;;;1999.90;999.90;;;18.10;99.90;;;;;;5034654;28;20192;-68
2022/08/28 00:35:22;;;;;;;1999.90;999.90;;;18.10;99.90;;;;;;5034586;28;20210;-69
2022/08/28 00:37:49;;;;;;;1999.90;999.90;;;18.00;99.90;;;;;;5034562;28;20211;-69
2022/08/28 00:40:19;;;;;;;1999.90;999.90;;;18.00;99.90;;;;;;5034497;28;20192;-69
2022/08/28 00:42:47;;;;;;;1999.90;999.90;;;17.90;99.90;;;;;;5034427;28;20214;-69
2022/08/28 00:45:17;;;;;;;1999.90;999.90;;;17.90;99.90;;;;;;5034430;28;20196;-69
2022/08/28 00:47:44;;;;;;;1999.90;999.90;;;17.90;99.90;;;;;;5034368;28;20216;-69
2022/08/28 00:50:16;;;;;;;1999.90;999.90;;;17.90;99.90;;;;;;5034222;28;20200;-70
2022/08/28 00:52:44;;;;;;;1999.90;999.90;;;17.90;99.90;;;;;;5034290;28;20249;-70
2022/08/28 00:55:13;;;;;;;1999.90;999.90;;;17.90;99.90;;;;;;5034182;28;20199;-69
2022/08/28 00:57:47;;;;;;;1999.90;999.90;;;17.90;99.90;;;;;;5033811;28;20226;-68
2022/08/28 01:00:18;;;;;;;1999.90;999.90;;;17.80;99.90;;;;;;5034195;28;20201;-68
2022/08/28 01:02:46;;;;;;;1999.90;999.90;;;17.80;99.90;;;;;;5033785;28;20203;-68
2022/08/28 01:05:14;;;;;;;1999.90;999.90;;;17.80;99.90;;;;;;5034160;28;20203;-68
2022/08/28 01:07:42;;;;;;;1999.90;999.90;;;17.80;99.90;;;;;;5033977;28;20203;-69
2022/08/28 01:10:12;;;;;;;1999.90;999.90;;;17.70;99.90;;;;;;5033986;28;20215;-69
2022/08/28 01:12:40;;;;;;;1999.90;999.90;;;17.70;99.90;;;;;;5033938;28;20194;-70
2022/08/28 01:15:11;;;;;;;1999.90;999.90;;;17.70;99.90;;;;;;5033831;28;20207;-69
2022/08/28 01:17:43;;;;;;;1999.90;999.90;;;17.60;99.90;;;;;;5033879;28;20187;-68
2022/08/28 01:20:15;;;;;;;1999.90;999.90;;;17.60;99.90;;;;;;5033714;28;20188;-67
2022/08/28 01:22:50;;;;;;;1999.90;999.90;;;17.60;99.90;;;;;;5033705;28;20210;-68
2022/08/28 01:25:22;;;;;;;1999.90;999.90;;;17.60;99.90;;;;;;5033592;28;20182;-69
2022/08/28 01:27:50;;;;;;;1999.90;999.90;;;17.50;99.90;;;;;;5033409;28;20576;-68
2022/08/28 01:30:20;;;;;;;1999.90;999.90;;;17.50;99.90;;;;;;5033584;28;20208;-68
2022/08/28 01:32:50;;;;;;;1999.90;999.90;;;17.50;99.90;;;;;;5033203;28;20188;-68
2022/08/28 01:35:19;;;;;;;1999.90;999.90;;;17.40;99.90;;;;;;5032987;28;20186;-68
2022/08/28 01:37:47;;;;;;;1999.90;999.90;;;17.40;99.90;;;;;;5033458;28;20199;-69
2022/08/28 01:40:21;;;;;;;1999.90;999.90;;;17.40;99.90;;;;;;5033036;28;20670;-69
2022/08/28 01:42:50;;;;;;;1999.90;999.90;;;17.40;99.90;;;;;;5033360;28;20210;-69
2022/08/28 01:45:19;;;;;;;1999.90;999.90;;;17.40;99.90;;;;;;5033313;28;20203;-69
2022/08/28 01:47:47;;;;;;;1999.90;999.90;;;17.40;99.90;;;;;;5033289;28;20206;-69
2022/08/28 01:50:18;;;;;;;1999.90;999.90;;;17.30;99.90;;;;;;5033045;28;20209;-69
2022/08/28 01:52:46;;;;;;;1999.90;999.90;;;17.30;99.90;;;;;;5033231;28;20175;-70
2022/08/28 01:55:13;;;;;;;1999.90;999.90;;;17.30;99.90;;;;;;5033084;28;20203;-69
2022/08/28 01:57:44;;;;;;;1999.90;999.90;;;17.30;99.90;;;;;;5032602;28;20235;-68
2022/08/28 02:00:14;;;;;;;1999.90;999.90;;;17.20;99.90;;;;;;5032952;28;20221;-68
2022/08/28 02:02:41;;;;;;;1999.90;999.90;;;17.20;99.90;;;;;;5023972;28;20210;-67
2022/08/28 02:05:10;;;;;;;1999.90;999.90;;;17.20;99.90;;;;;;5013198;28;20198;-68
2022/08/28 02:07:37;;;;;;;1999.90;999.90;;;17.10;99.90;;;;;;5013185;28;20200;-69
2022/08/28 02:10:05;;;;;;;1999.90;999.90;;;17.00;99.90;;;;;;5012813;28;20667;-69
2022/08/28 02:12:32;;;;;;;1999.90;999.90;;;17.00;99.90;;;;;;5013143;28;20198;-68
2022/08/28 02:15:00;;;;;;;1999.90;999.90;;;17.00;99.90;;;;;;5013094;28;20248;-68
2022/08/28 02:17:28;;;;;;;1999.90;999.90;;;16.90;99.90;;;;;;5012705;28;20201;-68
2022/08/28 02:19:55;;;;;;;1999.90;999.90;;;16.90;99.90;;;;;;5012852;28;20246;-68
2022/08/28 02:22:22;;;;;;;1999.90;999.90;;;16.90;99.90;;;;;;5012547;28;20672;-68
2022/08/28 02:24:49;;;;;;;1999.90;999.90;;;16.90;99.90;;;;;;5012850;28;20207;-69
2022/08/28 02:27:16;;;;;;;1999.90;999.90;;;16.80;99.90;;;;;;5012600;28;20536;-68
2022/08/28 02:29:43;;;;;;;1999.90;999.90;;;16.80;99.90;;;;;;5012651;28;20202;-68
2022/08/28 02:32:11;;;;;;;1999.90;999.90;;;16.80;99.90;;;;;;5012873;28;20209;-68
2022/08/28 02:34:40;;;;;;;1999.90;999.90;;;16.80;99.90;;;;;;5012494;28;20662;-68
2022/08/28 02:37:08;;;;;;;1999.90;999.90;;;16.70;99.90;;;;;;5012548;28;20194;-70
2022/08/28 02:39:35;;;;;;;1999.90;999.90;;;16.70;99.90;;;;;;5012751;28;20205;-69
2022/08/28 02:42:03;;;;;;;1999.90;999.90;;;16.60;99.90;;;;;;5012747;28;20201;-69
2022/08/28 02:44:30;;;;;;;1999.90;999.90;;;16.50;99.90;;;;;;5012591;28;20225;-69
2022/08/28 02:46:57;;;;;;;1999.90;999.90;;;16.40;99.90;;;;;;5013563;28;20205;-69
2022/08/28 02:49:24;;;;;;;1999.90;999.90;;;16.30;99.90;;;;;;5016404;28;20193;-70
2022/08/28 02:51:55;;;;;;;1999.90;999.90;;;16.20;99.90;;;;;;5016468;28;20667;-69
2022/08/28 02:54:22;;;;;;;1999.90;999.90;;;16.20;99.90;;;;;;5016465;28;20665;-69
2022/08/28 02:56:49;;;;;;;1999.90;999.90;;;16.10;99.90;;;;;;5016163;28;20361;-69
2022/08/28 02:59:16;;;;;;;1999.90;999.90;;;16.10;99.90;;;;;;5016565;28;20196;-68
2022/08/28 03:01:44;;;;;;;1999.90;999.90;;;16.10;99.90;;;;;;5016291;28;20211;-68
2022/08/28 03:04:11;;;;;;;1999.90;999.90;;;16.10;99.90;;;;;;5016431;28;20262;-67
2022/08/28 03:06:38;;;;;;;1999.90;999.90;;;16.00;99.90;;;;;;5016493;28;20203;-68
2022/08/28 03:09:07;;;;;;;1999.90;999.90;;;16.00;99.90;;;;;;5021656;28;20199;-69
2022/08/28 03:11:35;;;;;;;1999.90;999.90;;;16.00;99.90;;;;;;5025912;28;20193;-69
2022/08/28 03:14:02;;;;;;;1999.90;999.90;;;16.00;99.90;;;;;;5024626;28;20196;-69
2022/08/28 03:16:29;;;;;;;1999.90;999.90;;;15.90;99.90;;;;;;5025928;28;20601;-69
2022/08/28 03:18:56;;;;;;;1999.90;999.90;;;15.90;99.90;;;;;;5026087;28;20193;-68
2022/08/28 03:21:23;;;;;;;1999.90;999.90;;;15.80;99.90;;;;;;5029886;28;20203;-67
2022/08/28 03:23:49;;;;;;;1999.90;999.90;;;15.80;99.90;;;;;;5035388;28;20586;-68
2022/08/28 03:26:20;;;;;;;1999.90;999.90;;;15.80;99.90;;;;;;5035524;28;20198;-68
2022/08/28 03:28:49;;;;;;;1999.90;999.90;;;15.70;99.90;;;;;;5035815;28;20233;-68
2022/08/28 03:31:20;;;;;;;1999.90;999.90;;;15.70;99.90;;;;;;5035491;28;20207;-68
2022/08/28 03:33:47;;;;;;;1999.90;999.90;;;15.70;99.90;;;;;;5035719;28;20179;-68
2022/08/28 03:36:20;;;;;;;1999.90;999.90;;;15.70;99.90;;;;;;5035560;28;20192;-68
2022/08/28 03:38:47;;;;;;;1999.90;999.90;;;15.70;99.90;;;;;;5035608;28;20196;-68
2022/08/28 03:41:17;;;;;;;1999.90;999.90;;;15.60;99.90;;;;;;5035478;28;20210;-68
2022/08/28 03:43:45;;;;;;;1999.90;999.90;;;15.60;99.90;;;;;;5035053;28;20208;-68
2022/08/28 03:46:15;;;;;;;1999.90;999.90;;;15.60;99.90;;;;;;5035479;28;20249;-68
2022/08/28 03:48:49;;;;;;;1999.90;999.90;;;15.60;99.90;;;;;;5035098;28;20190;-68
2022/08/28 03:51:19;;;;;;;1999.90;999.90;;;15.60;99.90;;;;;;5034975;28;20741;-69
2022/08/28 03:53:47;;;;;;;1999.90;999.90;;;15.50;99.90;;;;;;5035221;28;20184;-69
2022/08/28 03:56:17;;;;;;;1999.90;999.90;;;15.40;99.90;;;;;;5034890;28;20239;-69
2022/08/28 03:58:46;;;;;;;1999.90;999.90;;;15.40;99.90;;;;;;5034900;28;20548;-68
2022/08/28 04:01:13;;;;;;;1999.90;999.90;;;15.50;99.90;;;;;;5034688;28;20234;-68
2022/08/28 04:03:40;;;;;;;1999.90;999.90;;;15.50;99.90;;;;;;5034765;28;20285;-67
2022/08/28 04:06:07;;;;;;;1999.90;999.90;;;15.40;99.90;;;;;;5034729;28;20196;-69
2022/08/28 04:08:35;;;;;;;1999.90;999.90;;;15.50;99.90;;;;;;5034744;28;20218;-69
2022/08/28 04:11:03;;;;;;;1999.90;999.90;;;15.50;99.90;;;;;;5034881;28;20206;-69
2022/08/28 04:13:36;;;;;;;1999.90;999.90;;;15.50;99.90;;;;;;5034649;28;20203;-69
2022/08/28 04:16:09;;;;;;;1999.90;999.90;;;15.50;99.90;;;;;;5034867;28;20188;-68
2022/08/28 04:18:37;;;;;;;1999.90;999.90;;;15.50;99.90;;;;;;5034813;28;20184;-68
2022/08/28 04:21:07;;;;;;;1999.90;999.90;;;15.50;99.90;;;;;;5034897;28;20203;-68
2022/08/28 04:23:34;;;;;;;1999.90;999.90;;;15.50;99.90;;;;;;5034445;28;20212;-68
2022/08/28 04:26:03;;;;;;;1999.90;999.90;;;15.40;99.90;;;;;;5034405;28;20202;-69
2022/08/28 04:28:31;;;;;;;1999.90;999.90;;;15.40;99.90;;;;;;5034832;28;20206;-69
2022/08/28 04:30:58;;;;;;;1999.90;999.90;;;15.40;99.90;;;;;;5034632;28;20214;-69
2022/08/28 04:33:28;;;;;;;1999.90;999.90;;;15.40;99.90;;;;;;5034393;28;20738;-68
2022/08/28 04:35:56;;;;;;;1999.90;999.90;;;15.30;99.90;;;;;;5034580;28;20200;-68
2022/08/28 04:38:23;;;;;;;1999.90;999.90;;;15.30;99.90;;;;;;5034319;28;20199;-69
2022/08/28 04:40:50;;;;;;;1999.90;999.90;;;15.30;99.90;;;;;;5034303;28;20621;-69
2022/08/28 04:43:17;;;;;;;1999.90;999.90;;;15.20;99.90;;;;;;5034203;28;20196;-68
2022/08/28 04:45:45;;;;;;;1999.90;999.90;;;15.30;99.90;;;;;;5034513;28;20201;-68
2022/08/28 04:48:13;;;;;;;1999.90;999.90;;;15.20;99.90;;;;;;5034276;28;20207;-69
2022/08/28 04:50:44;;;;;;;1999.90;999.90;;;15.20;99.90;;;;;;5034418;28;20200;-70
2022/08/28 04:53:11;;;;;;;1999.90;999.90;;;15.10;99.90;;;;;;5034134;28;20574;-69
2022/08/28 04:55:41;;;;;;;1999.90;999.90;;;15.10;99.90;;;;;;5034066;28;20288;-69
2022/08/28 04:58:09;;;;;;;1999.90;999.90;;;15.10;99.90;;;;;;5034438;28;20180;-68
2022/08/28 05:00:37;;;;;;;1999.90;999.90;;;15.10;99.90;;;;;;5033859;28;20222;-68
2022/08/28 05:03:04;;;;;;;1999.90;999.90;;;15.10;99.90;;;;;;5034188;28;20211;-67
2022/08/28 05:05:33;;;;;;;1999.90;999.90;;;15.10;99.90;;;;;;5034104;28;20223;-68
2022/08/28 05:08:01;;;;;;;1999.90;999.90;;;15.10;99.90;;;;;;5034021;28;20196;-68
2022/08/28 05:10:28;;;;;;;1999.90;999.90;;;15.00;99.90;;;;;;5033457;28;20210;-68
2022/08/28 05:12:55;;;;;;;1999.90;999.90;;;15.00;99.90;;;;;;5034051;28;20196;-69
2022/08/28 05:15:22;;;;;;;1999.90;999.90;;;15.00;99.90;;;;;;5033870;28;20187;-68
2022/08/28 05:17:49;;;;;;;1999.90;999.90;;;15.00;99.90;;;;;;5033580;28;20608;-67
2022/08/28 05:20:16;;;;;;;1999.90;999.90;;;14.90;99.90;;;;;;5033616;28;20210;-67
2022/08/28 05:22:43;;;;;;;1999.90;999.90;;;14.90;99.90;;;;;;5033451;28;20563;-68
2022/08/28 05:25:12;;;;;;;1999.90;999.90;;;14.90;99.90;;;;;;5033603;28;20213;-68
2022/08/28 05:27:40;;;;;;;1999.90;999.90;;;15.00;99.90;;;;;;5033438;28;20669;-68
2022/08/28 05:30:09;;;;;;;1999.90;999.90;;;15.00;99.90;;;;;;5033576;28;20250;-67
2022/08/28 05:32:37;;;;;;;1999.90;999.90;;;15.00;99.90;;;;;;5033678;28;20214;-68
2022/08/28 05:35:04;;;;;;;1999.90;999.90;;;14.90;99.90;;;;;;5033120;28;20226;-68
2022/08/28 05:37:31;;;;;;;1999.90;999.90;;;14.80;99.90;;;;;;5030228;28;20201;-68
2022/08/28 05:39:58;;;;;;;1999.90;999.90;;;14.80;99.90;;;;;;5021004;28;20197;-68
2022/08/28 05:42:27;;;;;;;1999.90;999.90;;;14.80;99.90;;;;;;5013334;28;20197;-66
2022/08/28 05:44:57;;;;;;;1999.90;999.90;;;14.90;99.90;;;;;;5021540;28;20204;-67
2022/08/28 05:47:24;;;;;;;1999.90;999.90;;;14.80;99.90;;;;;;5021504;28;20206;-65
2022/08/28 05:49:51;;;;;;;1999.90;999.90;;;14.80;99.90;;;;;;5021190;28;20607;-65
2022/08/28 05:52:18;;;;;;;1999.90;999.90;;;14.80;99.90;;;;;;5021562;28;20669;-67
2022/08/28 05:54:45;;;;;;;1999.90;999.90;;;14.80;99.90;;;;;;5022645;28;20184;-68
2022/08/28 05:57:12;;;;;;;1999.90;999.90;;;14.80;99.90;;;;;;5015210;28;20240;-66
2022/08/28 05:59:41;;;;;;;1999.90;999.90;;;14.80;99.90;;;;;;5013297;28;20230;-65
2022/08/28 06:02:08;;;;;;;1999.90;999.90;;;14.80;99.90;;;;;;5013284;28;20208;-66
2022/08/28 06:04:39;;;;;;;1999.90;999.90;;;14.80;99.90;;;;;;5017785;28;20682;-66
2022/08/28 06:07:06;;;;;;;1999.90;999.90;;;14.90;99.90;;;;;;5021590;28;20184;-64
2022/08/28 06:09:34;;;;;;;1999.90;999.90;;;14.80;99.90;;;;;;5021716;28;20197;-66
2022/08/28 06:12:01;;;;;;;1999.90;999.90;;;14.80;99.90;;;;;;5022055;28;20192;-63
2022/08/28 06:14:30;;;;;;;1999.90;999.90;;;14.80;99.90;;;;;;5020314;28;20203;-64
2022/08/28 06:16:58;;;;;;;1999.90;999.90;;;14.90;99.90;;;;;;5023918;28;20274;-65
2022/08/28 06:19:28;;;;;;;1999.90;999.90;;;14.90;99.90;;;;;;5021364;28;20192;-65
2022/08/28 06:21:57;;;;;;;1999.90;999.90;;;15.00;99.90;;;;;;5020477;28;20724;-66
2022/08/28 06:24:25;;;;;;;1999.90;999.90;;;15.10;99.90;;;;;;5021776;28;20212;-67
2022/08/28 06:26:52;;;;;;;1999.90;999.90;;;15.10;99.90;;;;;;5023333;28;20203;-67
2022/08/28 06:29:21;;;;;;;1999.90;999.90;;;15.20;99.90;;;;;;5022146;28;20202;-65
2022/08/28 06:31:52;;;;;;;1999.90;999.90;;;15.80;99.90;;;;;;5021339;28;20205;-65
2022/08/28 06:34:20;;;;;;;1999.90;999.90;;;16.60;99.90;;;;;;5022333;28;20184;-66
2022/08/28 06:36:48;;;;;;;1999.90;999.90;;;17.30;99.90;;;;;;5020621;28;20193;-68
2022/08/28 06:39:15;;;;;;;1999.90;999.90;;;17.90;99.90;;;;;;5020755;28;20196;-69
2022/08/28 06:41:43;;;;;;;1999.90;999.90;;;18.40;99.90;;;;;;5022169;28;20663;-69
2022/08/28 06:44:12;;;;;;;1999.90;999.90;;;18.80;99.90;;;;;;5021413;28;20215;-68
2022/08/28 06:46:40;;;;;;;1999.90;999.90;;;19.30;99.90;;;;;;5022939;28;20194;-69
2022/08/28 06:49:07;;;;;;;1999.90;999.90;;;19.30;99.90;;;;;;5021409;28;20661;-68
2022/08/28 06:51:36;;;;;;;1999.90;999.90;;;19.20;99.90;;;;;;5020915;28;20201;-69
2022/08/28 06:54:04;;;;;;;1999.90;999.90;;;19.30;99.90;;;;;;5021350;28;20200;-69
2022/08/28 06:56:32;;;;;;;1999.90;999.90;;;19.40;99.90;;;;;;5012285;28;20233;-70
2022/08/28 06:58:59;;;;;;;1999.90;999.90;;;19.70;99.90;;;;;;5012369;28;20210;-69
2022/08/28 07:01:31;;;;;;;1999.90;999.90;;;19.80;99.90;;;;;;5012033;28;20209;-67
2022/08/28 07:04:00;;;;;;;1999.90;999.90;;;19.90;99.90;;;;;;5011918;28;20212;-64
2022/08/28 07:06:30;;;;;;;1999.90;999.90;;;20.20;99.90;;;;;;5012489;28;20201;-67
2022/08/28 07:08:59;;;;;;;1999.90;999.90;;;20.20;99.90;;;;;;5012224;28;20530;-67
2022/08/28 07:11:28;;;;;;;1999.90;999.90;;;20.30;99.90;;;;;;5012120;28;20224;-67
2022/08/28 07:13:57;;;;;;;1999.90;999.90;;;20.70;99.90;;;;;;5012142;28;20624;-66
2022/08/28 07:16:26;;;;;;;1999.90;999.90;;;21.10;99.90;;;;;;5012323;28;20197;-67
2022/08/28 07:18:53;;;;;;;1999.90;999.90;;;21.10;99.90;;;;;;5011928;28;20201;-65
2022/08/28 07:21:21;;;;;;;1999.90;999.90;;;20.90;99.90;;;;;;5012269;28;20200;-65
2022/08/28 07:23:48;;;;;;;1999.90;999.90;;;20.70;99.90;;;;;;5011905;28;20205;-65
2022/08/28 07:26:19;;;;;;;1999.90;999.90;;;20.50;99.90;;;;;;5011952;28;20213;-65
2022/08/28 07:28:47;;;;;;;1999.90;999.90;;;20.70;99.90;;;;;;5012294;28;20209;-65
2022/08/28 07:31:17;;;;;;;1999.90;999.90;;;20.50;99.90;;;;;;5012168;28;20211;-65
2022/08/28 07:33:44;;;;;;;1999.90;999.90;;;20.90;99.90;;;;;;5013518;28;20314;-65
2022/08/28 07:36:14;;;;;;;1999.90;999.90;;;21.10;99.90;;;;;;5015885;28;20204;-65
2022/08/28 07:38:42;;;;;;;1999.90;999.90;;;20.70;99.90;;;;;;5015585;28;20200;-65
2022/08/28 07:41:14;;;;;;;1999.90;999.90;;;21.20;99.40;;;;;;5015789;28;20203;-65
2022/08/28 07:46:28;;;;;;;1999.90;999.90;;;21.50;45.10;;;;;;5015644;28;20282;-66
2022/08/28 07:48:55;;;;;;;1999.90;999.90;;;21.80;35.90;;;;;;5015545;28;20207;-66
2022/08/28 07:51:22;;;;;;;1999.90;999.90;;;22.10;19.30;;;;;;5015659;28;20239;-65
2022/08/28 07:53:49;;;;;;;1999.90;999.90;;;22.10;3.60;;;;;;5015269;28;20192;-66
2022/08/28 07:56:17;;;;;;;1999.90;999.90;;;22.20;1.00;;;;;;5014806;28;20229;-66
2022/08/28 07:58:45;;;;;;;1999.90;999.90;;;22.00;1.00;;;;;;5013539;28;20208;-65
2022/08/28 08:01:12;;;;;;;1999.90;999.90;;;22.00;1.00;;;;;;5013152;28;20209;-66
2022/08/28 08:03:39;;;;;;;1999.90;999.90;;;21.80;1.00;;;;;;5015454;28;20205;-65
2022/08/28 08:06:07;;;;;;;1999.90;999.90;;;22.20;1.00;;;;;;5015017;28;20219;-66
2022/08/28 08:08:34;;;;;;;1999.90;999.90;;;22.30;1.00;;;;;;5015396;28;20200;-66
2022/08/28 08:11:05;;;;;;;1999.90;999.90;;;22.60;1.00;;;;;;5015269;28;20205;-66
2022/08/28 08:13:33;;;;;;;1999.90;999.90;;;22.70;1.00;;;;;;5015073;28;20189;-66
2022/08/28 08:16:03;;;;;;;1999.90;999.90;;;22.80;1.00;;;;;;5014906;28;20561;-67
2022/08/28 08:18:30;;;;;;;1999.90;999.90;;;22.90;1.00;;;;;;5014768;28;20247;-66
2022/08/28 08:20:57;;;;;;;1999.90;999.90;;;22.70;1.00;;;;;;5015198;28;20201;-66
2022/08/28 08:23:24;;;;;;;1999.90;999.90;;;23.00;1.00;;;;;;5015058;28;20202;-66
2022/08/28 08:25:56;;;;;;;1999.90;999.90;;;22.50;1.00;;;;;;5014930;28;20217;-66
2022/08/28 08:28:23;;;;;;;1999.90;999.90;;;22.30;1.00;;;;;;5014662;28;20196;-66
2022/08/28 08:30:50;;;;;;;1999.90;999.90;;;22.20;1.00;;;;;;5014844;28;20193;-66
2022/08/28 08:33:19;;;;;;;1999.90;999.90;;;22.40;1.00;;;;;;5014548;28;20266;-66
2022/08/28 08:35:46;;;;;;;1999.90;999.90;;;22.70;1.00;;;;;;5014812;28;20193;-66
2022/08/28 08:38:13;;;;;;;1999.90;999.90;;;22.30;1.00;;;;;;5014068;28;20204;-67
2022/08/28 08:40:40;;;;;;;1999.90;999.90;;;22.00;1.00;;;;;;5014684;28;20226;-67
2022/08/28 08:43:08;;;;;;;1999.90;999.90;;;21.80;1.00;;;;;;5014380;28;20208;-66
2022/08/28 08:45:38;;;;;;;1999.90;999.90;;;22.40;1.00;;;;;;5013469;28;20221;-66
2022/08/28 08:48:05;;;;;;;1999.90;999.90;;;22.60;1.00;;;;;;5013972;28;20201;-68
2022/08/28 08:50:35;;;;;;;1999.90;999.90;;;22.10;1.00;;;;;;5014588;28;20205;-65
2022/08/28 08:53:19;;;;;;;1999.90;999.90;;;21.40;1.00;;;;;;5013902;28;20196;-68
2022/08/28 08:55:49;;;;;;;1999.90;999.90;;;21.40;1.00;;;;;;5013948;28;20602;-68
2022/08/28 08:58:23;;;;;;;1999.90;999.90;;;22.30;1.00;;;;;;5014077;28;20216;-66
2022/08/28 09:00:57;;;;;;;1999.90;999.90;;;23.00;1.00;;;;;;5013924;28;20198;-67
2022/08/28 09:03:30;;;;;;;1999.90;999.90;;;23.10;1.00;;;;;;5013989;28;20176;-67
2022/08/28 09:06:02;;;;;;;1999.90;999.90;;;23.90;1.00;;;;;;5013870;28;20213;-66
2022/08/28 09:08:36;;;;;;;1999.90;999.90;;;23.80;1.00;;;;;;5014187;28;20534;-66
2022/08/28 09:11:15;;;;;;;1999.90;999.90;;;24.30;1.00;;;;;;5014224;28;20192;-66
2022/08/28 09:13:51;;;;;;;1999.90;999.90;;;24.00;1.00;;;;;;5013871;28;20192;-65
2022/08/28 09:16:26;;;;;;;1999.90;999.90;;;24.10;1.00;;;;;;5013804;28;20246;-66
2022/08/28 09:18:55;;;;;;;1999.90;999.90;;;24.10;1.00;;;;;;5013699;28;20195;-65
2022/08/28 09:21:32;;;;;;;1999.90;999.90;;;23.90;1.00;;;;;;5014055;28;20209;-65
2022/08/28 09:24:02;;;;;;;1999.90;999.90;;;23.80;1.00;;;;;;5013889;28;20180;-66
2022/08/28 09:26:30;;;;;;;1999.90;999.90;;;24.20;1.00;;;;;;5013758;28;20209;-66
2022/08/28 09:29:02;;;;;;;1999.90;999.90;;;23.70;1.00;;;;;;5013585;28;20266;-65
2022/08/28 09:31:33;;;;;;;1999.90;999.90;;;24.20;1.00;;;;;;5013831;28;20259;-66
2022/08/28 09:34:23;;;;;;;1999.90;999.90;;;24.60;1.00;;;;;;5013454;28;20200;-66
2022/08/28 09:36:53;;;;;;;1999.90;999.90;;;24.90;1.00;;;;;;5013465;28;20177;-66
2022/08/28 09:39:22;;;;;;;1999.90;999.90;;;25.20;1.00;;;;;;5013721;28;20193;-67
2022/08/28 09:44:53;;;;;;;1999.90;999.90;;;25.10;1.00;;;;;;5013653;28;20187;-66
2022/08/28 09:47:47;;;;;;;1999.90;999.90;;;25.00;1.00;;;;;;5013541;28;20176;-65
2022/08/28 09:50:18;;;;;;;1999.90;999.90;;;25.20;1.00;;;;;;5013505;28;20195;-66
2022/08/28 09:52:47;;;;;;;1999.90;999.90;;;25.10;1.00;;;;;;5013170;28;20543;-66
2022/08/28 09:55:23;;;;;;;1999.90;999.90;;;25.10;1.00;;;;;;5013197;28;20239;-67
2022/08/28 09:57:53;;;;;;;1999.90;999.90;;;24.80;1.00;;;;;;5011236;28;20196;-67
2022/08/28 10:00:21;;;;;;;1999.90;999.90;;;25.00;1.00;;;;;;5015539;28;20201;-67
2022/08/28 10:02:57;;;;;;;1999.90;999.90;;;25.00;1.00;;;;;;5024308;28;20204;-66
2022/08/28 10:05:38;;;;;;;1999.90;999.90;;;25.00;1.00;;;;;;5032748;28;20261;-67
2022/08/28 10:08:15;;;;;;;1999.90;999.90;;;25.20;1.00;;;;;;5032919;28;20234;-68
2022/08/28 10:10:50;;;;;;;1999.90;999.90;;;25.10;1.00;;;;;;5032533;28;20188;-67
2022/08/28 10:13:23;;;;;;;1999.90;999.90;;;25.00;1.00;;;;;;5032553;28;20187;-68
2022/08/28 10:16:08;;;;;;;1999.90;999.90;;;25.70;1.00;;;;;;5032529;28;20207;-67
2022/08/28 10:18:44;;;;;;;1999.90;999.90;;;25.80;1.00;;;;;;5032387;28;20230;-67
2022/08/28 10:21:19;;;;;;;1999.90;999.90;;;25.70;1.00;;;;;;5032238;28;20588;-67
2022/08/28 10:24:04;;;;;;;1999.90;999.90;;;25.40;1.00;;;;;;5032650;28;20188;-67
2022/08/28 10:26:39;;;;;;;1999.90;999.90;;;25.70;1.00;;;;;;5032287;28;20226;-68
2022/08/28 10:29:21;;;;;;;1999.90;999.90;;;26.00;1.00;;;;;;5032413;28;20180;-67
2022/08/28 10:31:57;;;;;;;1999.90;999.90;;;26.30;1.00;;;;;;5032454;28;20194;-68
2022/08/28 10:34:45;;;;;;;1999.90;999.90;;;26.50;1.00;;;;;;5032323;28;20663;-67
2022/08/28 10:37:26;;;;;;;1999.90;999.90;;;25.80;1.00;;;;;;5032288;28;20185;-67
2022/08/28 10:39:57;;;;;;;1999.90;999.90;;;26.10;1.00;;;;;;5032404;28;20180;-67
2022/08/28 10:42:30;;;;;;;1999.90;999.90;;;26.40;1.00;;;;;;5032160;28;20188;-67
2022/08/28 10:45:03;;;;;;;1999.90;999.90;;;26.70;1.00;;;;;;5032479;28;20191;-66
2022/08/28 10:47:34;;;;;;;1999.90;999.90;;;26.80;1.00;;;;;;5032446;28;20205;-68
2022/08/28 10:50:08;;;;;;;1999.90;999.90;;;26.40;1.00;;;;;;5032051;28;20184;-72
2022/08/28 10:52:39;;;;;;;1999.90;999.90;;;26.40;1.00;;;;;;5032118;28;20180;-72
2022/08/28 10:55:13;;;;;;;1999.90;999.90;;;26.70;1.00;;;;;;5032236;28;20234;-69
2022/08/28 10:57:44;;;;;;;1999.90;999.90;;;26.40;1.00;;;;;;5031981;28;20689;-70
2022/08/28 11:00:15;;;;;;;1999.90;999.90;;;26.80;1.00;;;;;;5032026;28;20557;-69
2022/08/28 11:02:45;;;;;;;1999.90;999.90;;;27.30;1.00;;;;;;5032367;28;20188;-70
2022/08/28 11:05:13;;;;;;;1999.90;999.90;;;27.70;1.00;;;;;;5032058;28;20191;-71
2022/08/28 11:07:46;;;;;;;1999.90;999.90;;;27.60;1.00;;;;;;5032222;28;20230;-71
2022/08/28 11:10:23;;;;;;;1999.90;999.90;;;27.90;1.00;;;;;;5036213;28;20184;-71
2022/08/28 11:12:52;;;;;;;1999.90;999.90;;;27.60;1.00;;;;;;5036220;28;20187;-71
2022/08/28 11:15:41;;;;;;;1999.90;999.90;;;27.10;1.00;;;;;;5036113;28;20216;-70
2022/08/28 11:18:33;;;;;;;1999.90;999.90;;;26.60;1.00;;;;;;5035770;28;20729;-71
2022/08/28 11:21:07;;;;;;;1999.90;999.90;;;26.80;1.00;;;;;;5035820;28;20181;-70
2022/08/28 11:23:41;;;;;;;1999.90;999.90;;;26.20;1.00;;;;;;5035909;28;20246;-69
2022/08/28 11:26:14;;;;;;;1999.90;999.90;;;26.80;1.00;;;;;;5035215;28;20212;-71
2022/08/28 11:28:45;;;;;;;1999.90;999.90;;;26.70;1.00;;;;;;5035233;28;20191;-67
2022/08/28 11:31:35;;;;;;;1999.90;999.90;;;27.10;1.00;;;;;;5035829;28;20189;-72
2022/08/28 11:34:04;;;;;;;1999.90;999.90;;;27.00;1.00;;;;;;5035071;28;20177;-68
2022/08/28 11:37:01;;;;;;;1999.90;999.90;;;27.20;1.00;;;;;;5033653;28;20207;-72
2022/08/28 11:39:28;;;;;;;1999.90;999.90;;;27.80;1.00;;;;;;5029701;28;20196;-73
2022/08/28 11:42:36;;;;;;;1999.90;999.90;;;27.80;1.00;;;;;;5035300;28;20200;-74
2022/08/28 11:45:04;;;;;;;1999.90;999.90;;;27.70;1.00;;;;;;5034382;28;20177;-73
2022/08/28 11:47:55;;;;;;;1999.90;999.90;;;27.80;1.00;;;;;;5014989;28;20243;-71
2022/08/28 11:50:33;;;;;;;1999.90;999.90;;;27.00;1.00;;;;;;5013554;28;20217;-70
2022/08/28 11:53:25;;;;;;;1999.90;999.90;;;26.70;1.00;;;;;;5013516;28;20238;-71
2022/08/28 11:56:30;;;;;;;1999.90;999.90;;;26.90;1.00;;;;;;5012813;28;20236;-72
2022/08/28 11:59:23;;;;;;;1999.90;999.90;;;27.20;1.00;;;;;;5012559;28;20225;-70
2022/08/28 12:01:50;;;;;;;1999.90;999.90;;;27.40;1.00;;;;;;5013450;28;20223;-68
2022/08/28 12:04:20;;;;;;;1999.90;999.90;;;27.60;1.00;;;;;;5013330;28;20730;-68
2022/08/28 12:06:50;;;;;;;1999.90;999.90;;;27.50;1.00;;;;;;5013311;28;20221;-68
2022/08/28 12:09:41;;;;;;;1999.90;999.90;;;26.90;1.00;;;;;;5010998;28;20221;-69
2022/08/28 12:12:33;;;;;;;1999.90;999.90;;;27.50;1.00;;;;;;5013033;28;20352;-67
2022/08/28 12:15:09;;;;;;;1999.90;999.90;;;27.00;1.00;;;;;;5029438;28;20224;-67
2022/08/28 12:17:45;;;;;;;1999.90;999.90;;;27.50;1.00;;;;;;5032772;28;20227;-66
2022/08/28 12:20:19;;;;;;;1999.90;999.90;;;27.70;1.00;;;;;;5032081;28;20677;-66
2022/08/28 12:22:51;;;;;;;1999.90;999.90;;;27.60;1.00;;;;;;5033000;28;20219;-68
2022/08/28 12:25:35;;;;;;;1999.90;999.90;;;28.00;1.00;;;;;;5032382;28;20701;-68